Happy Valentine's Day! 

Flight Track Log - Related Links

Times and Time Zones

All times are in EDT time to prevent confusion due to time zone crossing. See the DKT1588 flight status page for this flight to view local times or setup timezone preferences in your user account.


Time Position Orientation Groundspeed Altitude Reporting Facility
EDT Latitude Longitude Course Direction KTS MPH feet Rate Location/Type
Tue 07:21:35 AM 43.5703 -96.7833 352° North 127 146 2,600  Level Minneapolis Center
Tue 07:22:36 AM 43.6106 -96.7914 352° North 141 162 4,100 1,377 Climbing Minneapolis Center
Tue 07:23:37 AM 43.6542 -96.7961 356° North 151 174 5,400 1,426 Climbing Minneapolis Center
Tue 07:24:38 AM 43.7081 -96.7981 359° North 157 181 7,000 1,426 Climbing Minneapolis Center
Tue 07:25:39 AM 43.7544 -96.7922 North 162 186 8,300 1,230 Climbing Minneapolis Center
Tue 07:26:40 AM 43.8011 -96.7900 North 165 190 9,500 1,033 Climbing Minneapolis Center
Tue 07:27:41 AM 43.8478 -96.7936 357° North 165 190 10,400 934 Climbing Minneapolis Center
Tue 07:28:42 AM 43.8967 -96.7922 North 167 192 11,400 934 Climbing Minneapolis Center
Tue 07:29:43 AM 43.9461 -96.7953 357° North 172 198 12,300 885 Climbing Minneapolis Center
Tue 07:30:44 AM 43.9958 -96.7992 357° North 173 199 13,200 836 Climbing Minneapolis Center
Tue 07:31:45 AM 44.0458 -96.8028 357° North 177 204 14,000 738 Climbing Minneapolis Center
Tue 07:32:46 AM 44.0972 -96.8017 North 178 205 14,700 738 Climbing Minneapolis Center
Tue 07:33:47 AM 44.1497 -96.8053 357° North 184 212 15,500 639 Climbing Minneapolis Center
Tue 07:34:48 AM 44.2014 -96.8069 359° North 186 214 16,000 246 Climbing Minneapolis Center
Tue 07:35:49 AM 44.2581 -96.8081 359° North 198 228 16,000  Level Minneapolis Center
Tue 07:36:50 AM 44.3194 -96.8133 356° North 211 243 16,000  Level Minneapolis Center
Tue 07:37:51 AM 44.3833 -96.8125 North 223 257 16,000  Level Minneapolis Center
Tue 07:38:52 AM 44.4486 -96.8200 355° North 230 265 16,000  Level Minneapolis Center
Tue 07:39:53 AM 44.5281 -96.8250 357° North 233 268 16,000 49 Level Minneapolis Center
Tue 07:40:54 AM 44.5953 -96.8306 357° North 237 273 16,100 49 Climbing Minneapolis Center
Tue 07:41:55 AM 44.6608 -96.8358 357° North 238 274 16,100  Level Minneapolis Center
Tue 07:42:56 AM 44.7281 -96.8422 356° North 238 274 16,100  Level Minneapolis Center
Tue 07:43:57 AM 44.7942 -96.8489 356° North 238 274 16,100  Level Minneapolis Center
Tue 07:44:59 AM 44.8603 -96.8542 357° North 238 274 16,100 -49 Level Minneapolis Center
Tue 07:46:00 AM 44.9261 -96.8697 351° North 238 274 16,000 -49 Descending Minneapolis Center
Tue 07:47:01 AM 44.9919 -96.8797 354° North 238 274 16,000  Level Minneapolis Center
Tue 07:48:02 AM 45.0586 -96.8864 356° North 239 275 16,000  Level Minneapolis Center
Tue 07:49:04 AM 45.1261 -96.8953 355° North 239 275 16,000  Level Minneapolis Center
Tue 07:50:05 AM 45.1917 -96.9019 356° North 240 276 16,000  Level Minneapolis Center
Tue 07:51:06 AM 45.2725 -96.9028 360° North 240 276 16,000  Level Minneapolis Center
Tue 07:52:07 AM 45.3403 -96.9025 360° North 242 278 16,000 49 Level Minneapolis Center
Tue 07:53:09 AM 45.4056 -96.9069 357° North 242 278 16,100  Climbing Minneapolis Center
Tue 07:54:10 AM 45.4719 -96.9169 354° North 241 277 16,000 -49 Descending Minneapolis Center
Tue 07:55:11 AM 45.5378 -96.9258 355° North 241 277 16,000  Level Minneapolis Center
Tue 07:56:13 AM 45.6050 -96.9314 357° North 241 277 16,000  Level Minneapolis Center
Tue 07:57:14 AM 45.6700 -96.9389 355° North 241 277 16,000 -49 Level Minneapolis Center
Tue 07:58:15 AM 45.7372 -96.9444 357° North 241 277 15,900 49 Descending Minneapolis Center
Tue 07:59:16 AM 45.8028 -96.9444 360° North 241 277 16,100 98 Climbing Minneapolis Center
Tue 08:00:18 AM 45.8700 -96.9483 358° North 241 277 16,100 -49 Level Minneapolis Center
Tue 08:01:19 AM 45.9492 -96.9550 357° North 241 277 16,000 -49 Descending Minneapolis Center
Tue 08:02:20 AM 46.0161 -96.9664 353° North 241 277 16,000  Level Minneapolis Center
Tue 08:03:22 AM 46.0817 -96.9728 356° North 240 276 16,000  Level Minneapolis Center
Tue 08:04:23 AM 46.1483 -96.9778 357° North 240 276 16,000 -49 Level Minneapolis Center
Tue 08:05:24 AM 46.2183 -96.9892 354° North 233 268 15,900  Descending Minneapolis Center
Tue 08:06:26 AM 46.2869 -97.0008 353° North 235 270 16,000 98 Climbing Minneapolis Center
Tue 08:07:27 AM 46.3500 -97.0108 354° North 237 273 16,100  Climbing Minneapolis Center
Tue 08:08:28 AM 46.4186 -97.0228 353° North 237 273 16,000 -49 Descending Minneapolis Center
Tue 08:09:30 AM 46.4867 -97.0361 352° North 237 273 16,000 -49 Level Minneapolis Center
Tue 08:10:31 AM 46.5494 -97.0461 354° North 237 273 15,900  Descending Minneapolis Center
Tue 08:11:33 AM 46.6181 -97.0542 355° North 237 273 16,000 49 Climbing Minneapolis Center
Tue 08:12:34 AM 46.6872 -97.0556 359° North 237 273 16,000  Level Minneapolis Center
Tue 08:13:36 AM 46.7556 -97.0633 356° North 238 274 16,000  Level Minneapolis Center
Tue 08:14:37 AM 46.8192 -97.0761 352° North 237 273 16,000  Level Minneapolis Center
Tue 08:15:39 AM 46.8886 -97.0864 354° North 238 274 16,000  Level Minneapolis Center
Tue 08:16:41 AM 46.9581 -97.0967 354° North 238 274 16,000  Level Minneapolis Center
Tue 08:17:42 AM 47.0228 -97.1036 356° North 239 275 16,000 -341 Level Minneapolis Center
Tue 08:18:44 AM 47.0953 -97.1139 354° North 251 289 15,300 -766 Descending Minneapolis Center
Tue 08:19:16 AM 47.1322 -97.1211 352° North 258 297 14,800 -871 Descending Minneapolis Center
Tue 08:19:46 AM 47.1708 -97.1267 354° North 262 302 14,400 -1,000 Descending Minneapolis Center
Tue 08:20:16 AM 47.2108 -97.1331 354° North 270 311 13,800 -1,180 Descending Minneapolis Center
Tue 08:20:47 AM 47.2494 -97.1361 357° North 267 307 13,200 -1,279 Descending Minneapolis Center
Tue 08:21:17 AM 47.2844 -97.1397 356° North 278 320 12,500 -1,355 Descending Minneapolis Center
Tue 08:21:49 AM 47.3297 -97.1417 358° North 272 313 11,800 -1,100 Descending Minneapolis Center
Tue 08:22:17 AM 47.3644 -97.1425 359° North 280 322 11,400 -1,065 Descending Minneapolis Center
Tue 08:22:51 AM 47.4042 -97.1442 358° North 276 318 10,700 -1,279 Descending Minneapolis Center
Tue 08:23:18 AM 47.4381 -97.1492 354° North 276 318 10,100 -1,355 Descending Minneapolis Center
Tue 08:23:53 AM 47.4836 -97.1542 356° North 276 318 9,300 -1,672 Descending Minneapolis Center
Tue 08:24:19 AM 47.5186 -97.1611 352° North 274 315 8,400 -1,967 Descending Minneapolis Center
Tue 08:24:54 AM 47.5619 -97.1689 353° North 275 316 7,300 -1,900 Descending Minneapolis Center
Tue 08:25:19 AM 47.5950 -97.1736 354° North 267 307 6,500 -1,839 Descending Minneapolis Center
Tue 08:25:56 AM 47.6386 -97.1797 355° North 269 310 5,400 -1,574 Descending Minneapolis Center
Tue 08:26:20 AM 47.6647 -97.1842 353° North 264 304 4,900 -1,548 Descending Minneapolis Center
Tue 08:26:58 AM 47.7083 -97.1844 360° North 262 302 3,800 -1,800 Descending Minneapolis Center
Tue 08:27:20 AM 47.7400 -97.1814 North 257 296 3,100 -1,161 Descending Minneapolis Center
Tue 08:28:00 AM 47.7753 -97.1825 359° North 262 302 2,600 -492 Descending Minneapolis Center
Tue 08:28:21 AM 47.8031 -97.1836 358° North 228 262 2,600  Level Minneapolis Center
Tue 08:29:02 AM 47.8319 -97.1864 356° North 235 270 2,600 -197 Level Minneapolis Center
Tue 08:29:22 AM 47.8533 -97.1850 North 159 183 2,400 -787 Descending Minneapolis Center
Tue 08:30:03 AM 47.8831 -97.1853 360° North 183 211 1,800 -818 Descending Minneapolis Center
Tue 08:30:28 AM 47.8972 -97.1842 North 129 148 1,500 -581 Descending Minneapolis Center
Tue 08:31:05 AM 47.9186 -97.1836 North 154 177 1,200 -492 Descending Minneapolis Center
Tue 08:31:29 AM 47.9306 -97.1819 North 117 135 1,000 -97 Descending Minneapolis Center
Tue 08:32:07 AM 47.9583 -97.1836 358° North 150 173 1,100 158 Climbing Minneapolis Center

Login

Don't have an account? Register now (free) for customized features, flight alerts, and more!